createdAt,value
2017-08-31T00:01:22.439Z,5.53
2017-08-31T00:03:50.367Z,6.00
2017-08-31T00:06:17.887Z,6.10
2017-08-31T00:08:45.415Z,6.40
2017-08-31T00:11:12.963Z,8.70
2017-08-31T00:13:40.548Z,6.70
2017-08-31T00:16:08.111Z,8.40
2017-08-31T00:18:35.677Z,5.63
2017-08-31T00:21:03.231Z,5.13
2017-08-31T00:23:30.776Z,4.37
2017-08-31T00:25:58.317Z,4.13
2017-08-31T00:28:25.849Z,5.33
2017-08-31T00:30:53.390Z,6.67
2017-08-31T00:33:20.942Z,7.50
2017-08-31T00:35:48.514Z,5.97
2017-08-31T00:38:16.076Z,7.87
2017-08-31T00:40:43.629Z,4.50
2017-08-31T00:43:11.203Z,6.17
2017-08-31T00:45:38.801Z,7.77
2017-08-31T00:48:06.381Z,5.70
2017-08-31T00:50:33.952Z,6.60
2017-08-31T00:53:01.499Z,7.47
2017-08-31T00:55:29.073Z,9.70
2017-08-31T00:57:56.611Z,8.07
2017-08-31T01:00:24.213Z,11.03
2017-08-31T01:02:51.770Z,9.80
2017-08-31T01:05:19.351Z,7.47
2017-08-31T01:07:46.942Z,12.00
2017-08-31T01:10:14.503Z,7.00
2017-08-31T01:12:42.082Z,9.23
2017-08-31T01:15:09.682Z,8.03
2017-08-31T01:17:37.267Z,10.27
2017-08-31T01:20:04.826Z,9.00
2017-08-31T01:22:32.651Z,8.77
2017-08-31T01:25:00.221Z,7.40
2017-08-31T01:27:27.776Z,10.70
2017-08-31T01:29:55.341Z,7.50
2017-08-31T01:32:22.887Z,9.93
2017-08-31T01:34:50.485Z,9.60
2017-08-31T01:37:18.092Z,7.47
2017-08-31T01:39:46.065Z,7.87
2017-08-31T01:42:13.600Z,8.80
2017-08-31T01:44:41.131Z,8.63
2017-08-31T01:47:08.695Z,9.43
2017-08-31T01:49:36.246Z,10.30
2017-08-31T01:52:03.800Z,9.63
2017-08-31T01:54:31.331Z,7.87
2017-08-31T01:56:59.285Z,9.90
2017-08-31T01:59:26.830Z,9.47
2017-08-31T02:01:54.375Z,8.33
2017-08-31T02:04:21.923Z,8.80
2017-08-31T02:06:50.219Z,7.97
2017-08-31T02:09:17.784Z,7.73
2017-08-31T02:11:45.311Z,8.97
2017-08-31T02:14:12.868Z,7.23
2017-08-31T02:16:41.175Z,6.40
2017-08-31T02:19:08.715Z,6.20
2017-08-31T02:21:36.360Z,8.77
2017-08-31T02:24:03.929Z,6.90
2017-08-31T02:26:31.503Z,9.40
2017-08-31T02:28:59.048Z,9.43
2017-08-31T02:31:26.596Z,7.63
2017-08-31T02:33:54.150Z,7.27
2017-08-31T02:36:21.679Z,7.27
2017-08-31T02:38:49.213Z,9.93
2017-08-31T02:41:16.745Z,7.57
2017-08-31T02:43:44.292Z,6.80
2017-08-31T02:46:11.834Z,6.40
2017-08-31T02:48:39.379Z,6.93
2017-08-31T02:51:06.933Z,8.57
2017-08-31T02:53:34.484Z,9.90
2017-08-31T02:56:02.044Z,8.10
2017-08-31T02:58:29.586Z,6.57
2017-08-31T03:00:57.121Z,6.70
2017-08-31T03:03:24.646Z,10.00
2017-08-31T03:05:52.199Z,7.93
2017-08-31T03:08:19.736Z,8.20
2017-08-31T03:10:47.296Z,7.00
2017-08-31T03:13:14.850Z,6.90
2017-08-31T03:15:42.413Z,8.80
2017-08-31T03:18:10.336Z,7.40
2017-08-31T03:20:37.855Z,8.23
2017-08-31T03:23:05.422Z,11.00
2017-08-31T03:25:32.999Z,7.83
2017-08-31T03:28:00.536Z,6.57
2017-08-31T03:30:28.424Z,6.47
2017-08-31T03:32:55.952Z,6.27
2017-08-31T03:35:23.474Z,7.63
2017-08-31T03:37:54.455Z,5.90
2017-08-31T03:40:22.003Z,5.67
2017-08-31T03:42:49.557Z,7.07
2017-08-31T03:45:17.115Z,6.80
2017-08-31T03:47:44.661Z,7.90
2017-08-31T03:50:12.635Z,7.90
2017-08-31T03:52:40.180Z,8.00
2017-08-31T03:55:07.728Z,8.17
2017-08-31T03:57:35.260Z,7.40
2017-08-31T04:00:02.958Z,7.60
2017-08-31T04:02:30.496Z,17.20
2017-08-31T04:04:58.590Z,5.83
2017-08-31T04:07:26.158Z,5.33
2017-08-31T04:09:53.686Z,8.70
2017-08-31T04:12:21.295Z,9.97
2017-08-31T04:14:48.836Z,6.33
2017-08-31T04:17:16.784Z,5.57
2017-08-31T04:19:44.310Z,7.20
2017-08-31T04:22:11.834Z,6.07
2017-08-31T04:24:39.417Z,8.33
2017-08-31T04:27:07.030Z,8.77
2017-08-31T04:29:34.714Z,5.57
2017-08-31T04:32:02.281Z,6.20
2017-08-31T04:34:29.934Z,5.93
2017-08-31T04:36:57.619Z,5.57
2017-08-31T04:39:25.187Z,6.53
2017-08-31T04:41:52.763Z,10.50
2017-08-31T04:44:20.304Z,5.97
2017-08-31T04:46:47.913Z,10.23
2017-08-31T04:49:15.516Z,11.87
2017-08-31T04:51:43.342Z,6.70
2017-08-31T04:54:10.887Z,4.30
2017-08-31T04:56:38.440Z,5.50
2017-08-31T04:59:06.001Z,8.73
2017-08-31T05:01:33.561Z,8.37
2017-08-31T05:04:01.138Z,6.73
2017-08-31T05:06:28.718Z,6.47
2017-08-31T05:08:56.301Z,5.40
2017-08-31T05:11:23.912Z,9.07
2017-08-31T05:13:51.447Z,7.30
2017-08-31T05:16:19.021Z,10.03
2017-08-31T05:18:46.674Z,8.03
2017-08-31T05:21:14.234Z,6.23
2017-08-31T05:23:41.830Z,10.70
2017-08-31T05:26:09.397Z,6.30
2017-08-31T05:28:36.958Z,9.20
2017-08-31T05:31:04.595Z,6.80
2017-08-31T05:33:32.175Z,7.83
2017-08-31T05:35:59.722Z,7.90
2017-08-31T05:38:27.299Z,14.37
2017-08-31T05:40:54.875Z,7.40
2017-08-31T05:43:22.401Z,5.77
2017-08-31T05:45:49.974Z,6.80
2017-08-31T05:48:17.547Z,7.40
2017-08-31T05:50:45.127Z,7.50
2017-08-31T05:53:12.697Z,5.37
2017-08-31T05:55:40.271Z,5.10
2017-08-31T05:58:07.851Z,4.87
2017-08-31T06:00:35.433Z,3.83
2017-08-31T06:03:03.032Z,4.30
2017-08-31T06:05:30.586Z,4.60
2017-08-31T06:07:58.128Z,6.00
2017-08-31T06:10:25.648Z,5.30
2017-08-31T06:12:53.345Z,3.70
2017-08-31T06:15:22.925Z,5.67
2017-08-31T06:17:50.773Z,2.67
2017-08-31T06:20:18.401Z,2.10
2017-08-31T06:22:45.939Z,4.40
2017-08-31T06:25:18.659Z,5.20
2017-08-31T06:27:47.348Z,2.30
2017-08-31T06:30:14.925Z,1.77
2017-08-31T06:32:42.745Z,1.70
2017-08-31T06:35:10.353Z,1.30
2017-08-31T06:37:38.090Z,1.73
2017-08-31T06:40:06.194Z,2.73
2017-08-31T06:42:33.784Z,3.63
2017-08-31T06:45:01.325Z,1.60
2017-08-31T06:47:28.879Z,6.03
2017-08-31T06:49:56.440Z,2.70
2017-08-31T06:52:23.994Z,2.37
2017-08-31T06:54:51.557Z,2.70
2017-08-31T06:57:19.102Z,1.27
2017-08-31T06:59:46.652Z,5.90
2017-08-31T07:02:14.233Z,1.07
2017-08-31T07:04:41.771Z,1.20
2017-08-31T07:07:09.353Z,1.50
2017-08-31T07:09:36.902Z,1.00
2017-08-31T07:12:05.461Z,1.00
2017-08-31T07:14:35.088Z,2.40
2017-08-31T07:17:03.644Z,0.90
2017-08-31T07:19:32.008Z,0.83
2017-08-31T07:24:49.388Z,0.80
2017-08-31T07:27:17.375Z,1.23
2017-08-31T07:29:46.049Z,2.00
2017-08-31T07:32:18.688Z,1.87
2017-08-31T07:34:47.023Z,1.77
2017-08-31T07:37:14.593Z,1.33
2017-08-31T07:39:42.195Z,1.40
2017-08-31T07:42:09.774Z,0.93
2017-08-31T07:44:37.349Z,0.77
2017-08-31T07:47:04.944Z,0.80
2017-08-31T07:49:32.482Z,0.90
2017-08-31T07:52:00.052Z,0.80
2017-08-31T07:54:27.590Z,0.80
2017-08-31T07:56:55.921Z,0.90
2017-08-31T07:59:23.482Z,0.70
2017-08-31T08:01:51.040Z,0.80
2017-08-31T08:04:18.601Z,1.27
2017-08-31T08:06:46.145Z,0.80
2017-08-31T08:09:13.683Z,1.20
2017-08-31T08:11:41.234Z,0.80
2017-08-31T08:14:08.779Z,2.20
2017-08-31T08:16:36.324Z,1.00
2017-08-31T08:19:04.642Z,4.13
2017-08-31T08:21:32.196Z,0.80
2017-08-31T08:23:59.767Z,0.70
2017-08-31T08:26:27.301Z,0.70
2017-08-31T08:28:54.843Z,0.70
2017-08-31T08:31:22.381Z,1.10
2017-08-31T08:33:49.946Z,1.47
2017-08-31T08:36:17.495Z,0.70
2017-08-31T08:38:45.056Z,0.80
2017-08-31T08:41:12.629Z,0.90
2017-08-31T08:43:40.171Z,0.80
2017-08-31T08:46:07.738Z,0.70
2017-08-31T08:48:35.283Z,1.97
2017-08-31T08:51:02.843Z,0.80
2017-08-31T08:53:30.393Z,0.70
2017-08-31T08:55:57.948Z,0.83
2017-08-31T08:58:25.492Z,0.70
2017-08-31T09:00:53.056Z,1.10
2017-08-31T09:03:20.593Z,1.13
2017-08-31T09:05:48.126Z,0.80
2017-08-31T09:08:15.702Z,0.70
2017-08-31T09:10:43.253Z,0.70
2017-08-31T09:13:10.823Z,0.83
2017-08-31T09:15:38.380Z,0.80
2017-08-31T09:18:05.918Z,0.80
2017-08-31T09:20:34.247Z,0.80
2017-08-31T09:23:01.814Z,0.87
2017-08-31T09:25:29.388Z,0.80
2017-08-31T09:27:56.925Z,0.83
2017-08-31T09:30:24.476Z,0.70
2017-08-31T09:32:52.043Z,2.90
2017-08-31T09:35:19.598Z,1.93
2017-08-31T09:37:47.155Z,1.43
2017-08-31T09:40:14.718Z,1.10
2017-08-31T09:42:42.263Z,1.30
2017-08-31T09:45:09.802Z,1.10
2017-08-31T09:47:37.352Z,0.90
2017-08-31T09:50:04.913Z,0.90
2017-08-31T09:52:32.474Z,0.80
2017-08-31T09:55:00.038Z,0.80
2017-08-31T09:57:27.585Z,0.77
2017-08-31T09:59:55.148Z,0.90
2017-08-31T10:02:22.684Z,0.70
2017-08-31T10:04:50.270Z,1.33
2017-08-31T10:07:17.837Z,0.80
2017-08-31T10:09:45.417Z,2.60
2017-08-31T10:12:12.984Z,0.80
2017-08-31T10:14:40.548Z,2.73
2017-08-31T10:17:08.085Z,0.97
2017-08-31T10:19:35.621Z,1.10
2017-08-31T10:22:03.226Z,1.00
2017-08-31T10:24:30.774Z,1.10
2017-08-31T10:26:58.321Z,0.80
2017-08-31T10:29:25.870Z,0.80
2017-08-31T10:31:53.420Z,0.90
2017-08-31T10:34:20.993Z,0.70
2017-08-31T10:36:48.533Z,0.80
2017-08-31T10:39:16.131Z,1.67
2017-08-31T10:41:43.694Z,0.90
2017-08-31T10:44:11.230Z,0.80
2017-08-31T10:46:38.796Z,0.80
2017-08-31T10:49:06.347Z,0.80
2017-08-31T10:51:33.924Z,0.90
2017-08-31T10:54:01.494Z,1.00
2017-08-31T10:56:29.076Z,1.20
2017-08-31T10:58:56.654Z,0.70
2017-08-31T11:01:24.221Z,0.80
2017-08-31T11:03:51.800Z,0.80
2017-08-31T11:06:19.331Z,0.80
2017-08-31T11:08:46.909Z,0.80
2017-08-31T11:11:14.470Z,0.80
2017-08-31T11:13:42.037Z,0.80
2017-08-31T11:16:10.410Z,0.90
2017-08-31T11:18:37.954Z,0.83
2017-08-31T11:21:05.517Z,0.70
2017-08-31T11:23:34.106Z,0.80
2017-08-31T11:26:02.710Z,0.80
2017-08-31T11:28:30.279Z,3.90
2017-08-31T11:30:57.918Z,1.10
2017-08-31T11:33:25.573Z,0.70
2017-08-31T11:35:53.064Z,1.00
2017-08-31T11:38:20.624Z,0.80
2017-08-31T11:40:48.182Z,1.77
2017-08-31T11:43:16.110Z,1.10
2017-08-31T11:45:43.673Z,0.80
2017-08-31T11:48:11.209Z,0.80
2017-08-31T11:50:38.795Z,0.80
2017-08-31T11:53:06.342Z,0.90
2017-08-31T11:55:33.919Z,1.63
2017-08-31T11:58:01.528Z,1.20
2017-08-31T12:00:29.098Z,0.80
2017-08-31T12:02:56.668Z,1.10
2017-08-31T12:05:24.350Z,1.00
2017-08-31T12:07:52.029Z,3.37
2017-08-31T12:10:19.584Z,1.20
2017-08-31T12:12:47.153Z,1.77
2017-08-31T12:15:14.710Z,1.30
2017-08-31T12:17:42.281Z,1.30
2017-08-31T12:20:09.857Z,1.23
2017-08-31T12:22:37.408Z,1.67
2017-08-31T12:25:04.955Z,1.17
2017-08-31T12:27:32.577Z,1.20
2017-08-31T12:30:00.160Z,1.37
2017-08-31T12:32:27.775Z,1.50
2017-08-31T12:34:55.416Z,1.53
2017-08-31T12:37:22.975Z,1.30
2017-08-31T12:39:50.575Z,1.30
2017-08-31T12:42:19.022Z,1.33
2017-08-31T12:44:46.573Z,1.30
2017-08-31T12:47:14.153Z,1.70
2017-08-31T12:49:41.713Z,1.93
2017-08-31T12:52:09.255Z,1.10
2017-08-31T12:54:36.837Z,1.20
2017-08-31T12:57:04.376Z,1.00
2017-08-31T12:59:32.205Z,1.10
2017-08-31T13:01:59.752Z,1.10
2017-08-31T13:04:27.432Z,1.67
2017-08-31T13:06:55.770Z,1.70
2017-08-31T13:09:23.314Z,1.10
2017-08-31T13:11:52.404Z,0.80
2017-08-31T13:14:20.013Z,1.00
2017-08-31T13:16:47.619Z,1.40
2017-08-31T13:19:15.192Z,1.10
2017-08-31T13:21:42.765Z,0.80
2017-08-31T13:24:10.419Z,0.83
2017-08-31T13:26:38.001Z,0.90
2017-08-31T13:29:05.552Z,1.03
2017-08-31T13:31:33.120Z,1.63
2017-08-31T13:34:00.676Z,1.00
2017-08-31T13:36:28.231Z,1.23
2017-08-31T13:38:56.450Z,1.00
2017-08-31T13:41:32.325Z,1.00
2017-08-31T13:44:00.910Z,0.80
2017-08-31T13:46:29.339Z,0.77
2017-08-31T13:48:58.103Z,0.90
2017-08-31T13:51:37.061Z,0.80
2017-08-31T13:54:05.575Z,0.90
2017-08-31T13:56:33.657Z,1.10
2017-08-31T13:59:02.004Z,0.80
2017-08-31T14:01:31.248Z,0.83
2017-08-31T14:03:59.531Z,1.00
2017-08-31T14:06:27.462Z,0.97
2017-08-31T14:08:55.788Z,0.87
2017-08-31T14:11:25.028Z,0.90
2017-08-31T14:13:53.027Z,1.00
2017-08-31T14:16:20.880Z,1.83
2017-08-31T14:18:49.396Z,1.00
2017-08-31T14:21:17.077Z,0.80
2017-08-31T14:23:45.059Z,1.03
2017-08-31T14:26:14.537Z,0.87
2017-08-31T14:28:42.806Z,0.90
2017-08-31T14:31:11.935Z,1.00
2017-08-31T14:33:40.641Z,1.73
2017-08-31T14:36:15.997Z,0.97
2017-08-31T14:38:44.399Z,0.87
2017-08-31T14:41:12.126Z,0.80
2017-08-31T14:43:39.854Z,1.00
2017-08-31T14:46:07.468Z,1.03
2017-08-31T14:48:35.154Z,1.00
2017-08-31T14:51:02.868Z,0.80
2017-08-31T14:53:30.495Z,0.80
2017-08-31T14:55:58.094Z,1.10
2017-08-31T14:58:25.738Z,1.00
2017-08-31T15:00:53.370Z,1.30
2017-08-31T15:03:21.071Z,3.10
2017-08-31T15:05:49.069Z,1.10
2017-08-31T15:08:17.363Z,1.37
2017-08-31T15:10:45.112Z,1.10
2017-08-31T15:13:12.802Z,1.80
2017-08-31T15:15:40.397Z,1.43
2017-08-31T15:18:07.960Z,1.33
2017-08-31T15:20:35.525Z,1.90
2017-08-31T15:23:03.068Z,1.20
2017-08-31T15:25:30.671Z,2.37
2017-08-31T15:27:58.281Z,1.47
2017-08-31T15:30:25.830Z,1.30
2017-08-31T15:32:53.423Z,1.57
2017-08-31T15:35:21.290Z,1.30
2017-08-31T15:37:48.860Z,1.80
2017-08-31T15:40:16.447Z,1.97
2017-08-31T15:42:44.310Z,1.30
2017-08-31T15:45:11.871Z,1.60
2017-08-31T15:47:39.423Z,4.17
2017-08-31T15:50:07.035Z,1.87
2017-08-31T15:52:34.633Z,1.37
2017-08-31T15:55:02.188Z,1.87
2017-08-31T15:57:29.783Z,1.40
2017-08-31T15:59:57.611Z,1.30
2017-08-31T16:02:25.189Z,2.33
2017-08-31T16:04:52.729Z,2.70
2017-08-31T16:07:20.278Z,1.60
2017-08-31T16:09:48.616Z,2.10
2017-08-31T16:12:16.187Z,2.10
2017-08-31T16:14:43.734Z,1.67
2017-08-31T16:17:11.602Z,2.07
2017-08-31T16:19:39.156Z,3.03
2017-08-31T16:22:06.716Z,2.17
2017-08-31T16:24:34.268Z,2.23
2017-08-31T16:27:01.873Z,3.63
2017-08-31T16:29:29.497Z,2.17
2017-08-31T16:31:57.080Z,3.50
2017-08-31T16:34:24.638Z,2.40
2017-08-31T16:36:52.185Z,2.00
2017-08-31T16:39:19.733Z,2.23
2017-08-31T16:41:47.578Z,2.27
2017-08-31T16:44:15.228Z,1.90
2017-08-31T16:46:42.806Z,2.40
2017-08-31T16:49:10.417Z,2.63
2017-08-31T16:51:37.996Z,3.60
2017-08-31T16:54:05.826Z,4.03
2017-08-31T16:56:33.421Z,2.57
2017-08-31T16:59:00.967Z,2.43
2017-08-31T17:01:29.772Z,2.40
2017-08-31T17:03:58.391Z,3.03
2017-08-31T17:06:25.950Z,2.40
2017-08-31T17:08:53.509Z,2.07
2017-08-31T17:11:21.483Z,2.30
2017-08-31T17:13:49.033Z,2.20
2017-08-31T17:16:16.603Z,9.70
2017-08-31T17:18:44.186Z,2.83
2017-08-31T17:21:11.738Z,2.90
2017-08-31T17:23:39.310Z,3.20
2017-08-31T17:26:06.865Z,3.53
2017-08-31T17:28:34.819Z,2.20
2017-08-31T17:31:02.363Z,2.27
2017-08-31T17:33:29.899Z,2.50
2017-08-31T17:35:57.510Z,3.07
2017-08-31T17:38:25.074Z,2.70
2017-08-31T17:40:52.663Z,2.50
2017-08-31T17:43:20.245Z,2.50
2017-08-31T17:45:48.256Z,2.90
2017-08-31T17:48:16.628Z,2.60
2017-08-31T17:50:44.169Z,2.67
2017-08-31T17:53:11.724Z,3.13
2017-08-31T17:55:39.291Z,2.30
2017-08-31T17:58:07.268Z,3.47
2017-08-31T18:00:34.901Z,3.33
2017-08-31T18:03:02.804Z,3.07
2017-08-31T18:05:30.368Z,2.20
2017-08-31T18:08:00.827Z,2.33
2017-08-31T18:10:30.241Z,2.87
2017-08-31T18:12:57.888Z,3.70
2017-08-31T18:15:25.461Z,2.90
2017-08-31T18:17:53.083Z,2.77
2017-08-31T18:20:20.913Z,3.27
2017-08-31T18:22:52.121Z,2.80
2017-08-31T18:25:19.892Z,3.03
2017-08-31T18:27:47.597Z,18.37
2017-08-31T18:30:15.196Z,8.47
2017-08-31T18:32:42.766Z,6.43
2017-08-31T18:35:10.331Z,10.57
2017-08-31T18:37:37.916Z,9.80
2017-08-31T18:40:06.184Z,7.33
2017-08-31T18:42:33.757Z,8.23
2017-08-31T18:45:01.843Z,12.57
2017-08-31T18:47:29.444Z,7.80
2017-08-31T18:49:58.032Z,9.13
2017-08-31T18:52:25.889Z,7.20
2017-08-31T18:54:53.538Z,6.97
2017-08-31T18:57:21.383Z,7.60
2017-08-31T18:59:49.027Z,6.50
2017-08-31T19:02:16.725Z,6.33
2017-08-31T19:04:44.625Z,5.87
2017-08-31T19:07:12.460Z,7.00
2017-08-31T19:09:40.059Z,7.57
2017-08-31T19:12:07.697Z,5.20
2017-08-31T19:14:35.254Z,4.77
2017-08-31T19:17:02.831Z,4.57
2017-08-31T19:19:30.426Z,4.10
2017-08-31T19:21:58.425Z,4.67
2017-08-31T19:24:26.533Z,4.20
2017-08-31T19:26:54.129Z,5.00
2017-08-31T19:29:21.686Z,4.50
2017-08-31T19:31:50.378Z,5.27
2017-08-31T19:34:17.972Z,5.00
2017-08-31T19:36:45.586Z,3.77
2017-08-31T19:39:14.009Z,6.80
2017-08-31T19:41:43.117Z,5.10
2017-08-31T19:44:10.663Z,4.27
2017-08-31T19:46:38.235Z,7.10
2017-08-31T19:49:05.816Z,10.20
2017-08-31T19:51:33.423Z,8.03
2017-08-31T19:54:00.978Z,10.73
2017-08-31T19:56:28.557Z,6.53
2017-08-31T19:58:56.182Z,6.20
2017-08-31T20:01:23.743Z,5.50
2017-08-31T20:03:51.307Z,4.23
2017-08-31T20:06:18.861Z,5.20
2017-08-31T20:08:46.450Z,6.57
2017-08-31T20:11:14.040Z,4.50
2017-08-31T20:13:41.731Z,4.10
2017-08-31T20:16:09.337Z,6.30
2017-08-31T20:18:36.949Z,10.07
2017-08-31T20:21:04.589Z,4.60
2017-08-31T20:23:32.179Z,5.07
2017-08-31T20:25:59.761Z,5.63
2017-08-31T20:28:27.337Z,6.20
2017-08-31T20:30:54.888Z,5.07
2017-08-31T20:33:22.718Z,4.60
2017-08-31T20:35:50.320Z,6.30
2017-08-31T20:38:18.630Z,3.90
2017-08-31T20:40:46.205Z,4.27
2017-08-31T20:43:13.775Z,4.00
2017-08-31T20:45:41.334Z,4.37
2017-08-31T20:48:08.894Z,5.60
2017-08-31T20:50:36.724Z,4.37
2017-08-31T20:53:04.261Z,5.23
2017-08-31T20:55:31.809Z,3.87
2017-08-31T20:57:59.392Z,5.23
2017-08-31T21:00:26.949Z,4.60
2017-08-31T21:02:54.513Z,7.40
2017-08-31T21:05:22.061Z,4.77
2017-08-31T21:07:49.619Z,6.70
2017-08-31T21:10:17.169Z,6.27
2017-08-31T21:12:45.660Z,5.23
2017-08-31T21:15:13.237Z,4.47
2017-08-31T21:17:40.794Z,5.30
2017-08-31T21:20:08.347Z,3.87
2017-08-31T21:22:35.901Z,5.00
2017-08-31T21:25:03.466Z,4.97
2017-08-31T21:27:31.043Z,5.83
2017-08-31T21:29:58.616Z,5.50
2017-08-31T21:32:26.250Z,4.50
2017-08-31T21:34:53.818Z,4.87
2017-08-31T21:37:21.397Z,5.00
2017-08-31T21:39:48.945Z,10.93
2017-08-31T21:42:16.893Z,5.73
2017-08-31T21:44:44.425Z,7.70
2017-08-31T21:47:11.957Z,5.10
2017-08-31T21:49:39.530Z,4.97
2017-08-31T21:52:07.078Z,5.33
2017-08-31T21:54:34.651Z,7.30
2017-08-31T21:57:02.261Z,10.60
2017-08-31T21:59:30.121Z,9.30
2017-08-31T22:01:57.668Z,5.30
2017-08-31T22:04:25.239Z,6.50
2017-08-31T22:06:52.808Z,5.30
2017-08-31T22:09:20.353Z,5.27
2017-08-31T22:11:48.282Z,6.03
2017-08-31T22:14:15.859Z,6.53
2017-08-31T22:16:43.409Z,6.40
2017-08-31T22:19:10.980Z,6.50
2017-08-31T22:21:38.533Z,6.07
2017-08-31T22:24:06.376Z,6.13
2017-08-31T22:26:33.917Z,5.23
2017-08-31T22:29:01.458Z,8.80
2017-08-31T22:31:29.026Z,7.40
2017-08-31T22:33:58.189Z,7.20
2017-08-31T22:36:25.746Z,6.60
2017-08-31T22:38:53.291Z,6.90
2017-08-31T22:41:20.864Z,5.93
2017-08-31T22:43:48.784Z,11.70
2017-08-31T22:46:16.417Z,6.13
2017-08-31T22:48:44.060Z,5.63
2017-08-31T22:51:11.638Z,5.13
2017-08-31T22:53:39.181Z,8.50
2017-08-31T22:56:07.149Z,5.37
2017-08-31T22:58:43.576Z,5.80
2017-08-31T23:01:11.380Z,7.73
2017-08-31T23:03:38.941Z,6.70
2017-08-31T23:06:06.531Z,5.30
2017-08-31T23:08:34.114Z,4.70
2017-08-31T23:11:01.693Z,7.63
2017-08-31T23:13:29.327Z,7.33
2017-08-31T23:15:56.898Z,7.07
2017-08-31T23:18:24.441Z,5.67
2017-08-31T23:20:52.029Z,8.47
2017-08-31T23:23:19.560Z,5.27
2017-08-31T23:25:47.148Z,6.40
2017-08-31T23:28:14.713Z,7.40
2017-08-31T23:30:42.542Z,6.20
2017-08-31T23:33:10.135Z,5.70
2017-08-31T23:35:37.679Z,5.73
2017-08-31T23:38:05.985Z,5.83
2017-08-31T23:40:33.527Z,6.60
2017-08-31T23:43:01.078Z,5.93
2017-08-31T23:45:28.606Z,8.00
2017-08-31T23:47:57.184Z,7.03
2017-08-31T23:50:24.721Z,6.20
2017-08-31T23:52:52.264Z,5.30
2017-08-31T23:55:19.827Z,7.77
2017-08-31T23:57:47.366Z,8.97
